sensor_id;sensor_type;location;lat;lon;timestamp;pressure;altitude;pressure_sealevel;temperature;humidity
23318;BME280;11831;55.918;37.746;2023-03-13T00:00:51;97855.28;;;-2.86;0.00
23318;BME280;11831;55.918;37.746;2023-03-13T00:03:18;97856.38;;;-2.65;0.00
23318;BME280;11831;55.918;37.746;2023-03-13T00:05:44;97865.31;;;-2.74;0.00
23318;BME280;11831;55.918;37.746;2023-03-13T00:08:11;97870.25;;;-2.79;0.00
23318;BME280;11831;55.918;37.746;2023-03-13T00:10:39;97855.94;;;-2.98;0.00
23318;BME280;11831;55.918;37.746;2023-03-13T00:13:07;97863.84;;;-3.21;0.00
23318;BME280;11831;55.918;37.746;2023-03-13T00:15:34;97873.50;;;-3.22;0.00
23318;BME280;11831;55.918;37.746;2023-03-13T00:18:00;97877.72;;;-3.21;0.00
23318;BME280;11831;55.918;37.746;2023-03-13T00:20:27;97889.03;;;-3.43;0.00
23318;BME280;11831;55.918;37.746;2023-03-13T00:22:53;97877.78;;;-3.06;0.00
23318;BME280;11831;55.918;37.746;2023-03-13T00:25:19;97905.78;;;-3.15;0.00
23318;BME280;11831;55.918;37.746;2023-03-13T00:27:46;97892.53;;;-3.13;0.00
23318;BME280;11831;55.918;37.746;2023-03-13T00:30:12;97906.97;;;-2.58;0.00
23318;BME280;11831;55.918;37.746;2023-03-13T00:32:43;97880.38;;;-2.76;0.00
23318;BME280;11831;55.918;37.746;2023-03-13T00:35:12;97884.16;;;-2.94;0.00
23318;BME280;11831;55.918;37.746;2023-03-13T00:37:38;97881.00;;;-2.89;0.00
23318;BME280;11831;55.918;37.746;2023-03-13T00:40:06;97911.66;;;-2.83;0.00
23318;BME280;11831;55.918;37.746;2023-03-13T00:42:34;97904.06;;;-3.07;0.00
23318;BME280;11831;55.918;37.746;2023-03-13T00:45:01;97910.06;;;-2.69;0.00
23318;BME280;11831;55.918;37.746;2023-03-13T00:47:29;97917.59;;;-3.19;0.00
23318;BME280;11831;55.918;37.746;2023-03-13T00:49:56;97918.28;;;-3.25;0.00
23318;BME280;11831;55.918;37.746;2023-03-13T00:52:22;97911.66;;;-2.83;0.00
23318;BME280;11831;55.918;37.746;2023-03-13T00:54:50;97926.72;;;-3.00;0.00
23318;BME280;11831;55.918;37.746;2023-03-13T00:57:16;97916.47;;;-2.57;0.00
23318;BME280;11831;55.918;37.746;2023-03-13T00:59:42;97930.25;;;-2.78;0.00
23318;BME280;11831;55.918;37.746;2023-03-13T01:02:09;97946.03;;;-3.01;0.00
23318;BME280;11831;55.918;37.746;2023-03-13T01:04:35;97938.38;;;-2.88;0.00
23318;BME280;11831;55.918;37.746;2023-03-13T01:07:01;97947.12;;;-2.95;0.00
23318;BME280;11831;55.918;37.746;2023-03-13T01:09:28;97957.25;;;-3.15;0.00
23318;BME280;11831;55.918;37.746;2023-03-13T01:11:54;97956.94;;;-2.83;0.00
23318;BME280;11831;55.918;37.746;2023-03-13T01:14:20;97965.78;;;-2.98;0.00
23318;BME280;11831;55.918;37.746;2023-03-13T01:16:47;97964.25;;;-2.93;0.00
23318;BME280;11831;55.918;37.746;2023-03-13T01:19:15;97969.31;;;-2.91;0.00
23318;BME280;11831;55.918;37.746;2023-03-13T01:21:42;97967.06;;;-2.50;0.00
23318;BME280;11831;55.918;37.746;2023-03-13T01:24:09;97977.91;;;-2.68;0.00
23318;BME280;11831;55.918;37.746;2023-03-13T01:26:36;97984.31;;;-2.56;0.00
23318;BME280;11831;55.918;37.746;2023-03-13T01:29:02;97984.19;;;-2.92;0.00
23318;BME280;11831;55.918;37.746;2023-03-13T01:31:31;97994.78;;;-3.08;0.00
23318;BME280;11831;55.918;37.746;2023-03-13T01:33:59;97993.97;;;-2.56;0.00
23318;BME280;11831;55.918;37.746;2023-03-13T01:36:27;97997.72;;;-2.88;0.00
23318;BME280;11831;55.918;37.746;2023-03-13T01:38:56;98012.56;;;-2.66;0.00
23318;BME280;11831;55.918;37.746;2023-03-13T01:41:23;98011.47;;;-2.71;0.00
23318;BME280;11831;55.918;37.746;2023-03-13T01:43:50;98008.06;;;-2.57;0.00
23318;BME280;11831;55.918;37.746;2023-03-13T01:46:21;98020.06;;;-2.33;0.00
23318;BME280;11831;55.918;37.746;2023-03-13T01:51:36;98074.81;;;-2.99;0.00
23318;BME280;11831;55.918;37.746;2023-03-13T01:56:38;98034.09;;;-2.78;0.00
23318;BME280;11831;55.918;37.746;2023-03-13T01:59:08;98050.28;;;-3.21;0.00
23318;BME280;11831;55.918;37.746;2023-03-13T02:01:36;98036.31;;;-3.13;0.00
23318;BME280;11831;55.918;37.746;2023-03-13T02:04:04;98054.59;;;-3.05;0.00
23318;BME280;11831;55.918;37.746;2023-03-13T02:06:35;98053.00;;;-3.14;0.00
23318;BME280;11831;55.918;37.746;2023-03-13T02:09:08;98062.69;;;-3.46;0.00
23318;BME280;11831;55.918;37.746;2023-03-13T02:12:13;98079.50;;;-3.17;0.00
23318;BME280;11831;55.918;37.746;2023-03-13T02:14:42;98065.50;;;-3.01;0.00
23318;BME280;11831;55.918;37.746;2023-03-13T02:17:10;98085.66;;;-3.10;0.00
23318;BME280;11831;55.918;37.746;2023-03-13T02:19:42;98092.06;;;-3.44;0.00
23318;BME280;11831;55.918;37.746;2023-03-13T02:22:21;98087.09;;;-3.07;0.00
23318;BME280;11831;55.918;37.746;2023-03-13T02:27:38;98125.06;;;-3.12;0.00
23318;BME280;11831;55.918;37.746;2023-03-13T02:30:06;98113.50;;;-3.17;0.00
23318;BME280;11831;55.918;37.746;2023-03-13T02:32:34;98102.31;;;-3.34;0.00
23318;BME280;11831;55.918;37.746;2023-03-13T02:35:05;98104.78;;;-3.32;0.00
23318;BME280;11831;55.918;37.746;2023-03-13T02:37:32;98116.00;;;-3.01;0.00
23318;BME280;11831;55.918;37.746;2023-03-13T02:40:02;98125.63;;;-3.55;0.00
23318;BME280;11831;55.918;37.746;2023-03-13T02:42:30;98121.06;;;-2.99;0.00
23318;BME280;11831;55.918;37.746;2023-03-13T02:44:57;98120.34;;;-3.16;0.00
23318;BME280;11831;55.918;37.746;2023-03-13T02:47:24;98132.91;;;-3.42;0.00
23318;BME280;11831;55.918;37.746;2023-03-13T02:49:50;98147.63;;;-3.50;0.00
23318;BME280;11831;55.918;37.746;2023-03-13T02:52:21;98138.69;;;-3.24;0.00
23318;BME280;11831;55.918;37.746;2023-03-13T02:54:53;98158.03;;;-3.41;0.00
23318;BME280;11831;55.918;37.746;2023-03-13T02:57:21;98143.16;;;-3.33;0.00
23318;BME280;11831;55.918;37.746;2023-03-13T02:59:47;98157.34;;;-3.27;0.00
23318;BME280;11831;55.918;37.746;2023-03-13T03:02:14;98159.03;;;-3.34;0.00
23318;BME280;11831;55.918;37.746;2023-03-13T03:04:40;98163.91;;;-3.31;0.00
23318;BME280;11831;55.918;37.746;2023-03-13T03:07:06;98165.25;;;-3.44;0.00
23318;BME280;11831;55.918;37.746;2023-03-13T03:09:32;98173.47;;;-3.55;0.00
23318;BME280;11831;55.918;37.746;2023-03-13T03:11:59;98169.97;;;-3.39;0.00
23318;BME280;11831;55.918;37.746;2023-03-13T03:14:26;98167.03;;;-3.36;0.00
23318;BME280;11831;55.918;37.746;2023-03-13T03:16:52;98178.50;;;-3.06;0.00
23318;BME280;11831;55.918;37.746;2023-03-13T03:19:19;98180.78;;;-3.50;0.00
23318;BME280;11831;55.918;37.746;2023-03-13T03:21:46;98194.87;;;-3.59;0.00
23318;BME280;11831;55.918;37.746;2023-03-13T03:24:14;98188.81;;;-3.52;0.00
23318;BME280;11831;55.918;37.746;2023-03-13T03:26:41;98194.37;;;-3.55;0.00
23318;BME280;11831;55.918;37.746;2023-03-13T03:29:08;98195.97;;;-3.46;0.00
23318;BME280;11831;55.918;37.746;2023-03-13T03:31:36;98203.03;;;-3.15;0.00
23318;BME280;11831;55.918;37.746;2023-03-13T03:34:02;98205.50;;;-3.69;0.00
23318;BME280;11831;55.918;37.746;2023-03-13T03:36:29;98196.84;;;-3.22;0.00
23318;BME280;11831;55.918;37.746;2023-03-13T03:38:55;98217.87;;;-3.55;0.00
23318;BME280;11831;55.918;37.746;2023-03-13T03:41:22;98216.94;;;-3.70;0.00
23318;BME280;11831;55.918;37.746;2023-03-13T03:43:49;98215.75;;;-3.51;0.00
23318;BME280;11831;55.918;37.746;2023-03-13T03:46:15;98227.88;;;-3.19;0.00
23318;BME280;11831;55.918;37.746;2023-03-13T03:48:42;98241.91;;;-3.59;0.00
23318;BME280;11831;55.918;37.746;2023-03-13T03:51:08;98234.94;;;-3.83;0.00
23318;BME280;11831;55.918;37.746;2023-03-13T03:53:36;98231.69;;;-3.38;0.00
23318;BME280;11831;55.918;37.746;2023-03-13T03:56:02;98231.97;;;-3.80;0.00
23318;BME280;11831;55.918;37.746;2023-03-13T03:58:29;98246.00;;;-3.65;0.00
23318;BME280;11831;55.918;37.746;2023-03-13T04:00:56;98241.13;;;-3.76;0.00
23318;BME280;11831;55.918;37.746;2023-03-13T04:03:23;98252.38;;;-3.59;0.00
23318;BME280;11831;55.918;37.746;2023-03-13T04:05:50;98249.44;;;-3.81;0.00
23318;BME280;11831;55.918;37.746;2023-03-13T04:08:17;98253.53;;;-3.86;0.00
23318;BME280;11831;55.918;37.746;2023-03-13T04:10:43;98278.69;;;-3.93;0.00
23318;BME280;11831;55.918;37.746;2023-03-13T04:13:10;98261.22;;;-4.01;0.00
23318;BME280;11831;55.918;37.746;2023-03-13T04:15:40;98259.91;;;-3.81;0.00
23318;BME280;11831;55.918;37.746;2023-03-13T04:18:07;98270.37;;;-3.89;0.00
23318;BME280;11831;55.918;37.746;2023-03-13T04:20:34;98276.22;;;-3.79;0.00
23318;BME280;11831;55.918;37.746;2023-03-13T04:23:01;98298.91;;;-4.03;0.00
23318;BME280;11831;55.918;37.746;2023-03-13T04:25:28;98281.25;;;-3.69;0.00
23318;BME280;11831;55.918;37.746;2023-03-13T04:27:55;98308.87;;;-4.07;0.00
23318;BME280;11831;55.918;37.746;2023-03-13T04:30:21;98283.00;;;-3.37;0.00
23318;BME280;11831;55.918;37.746;2023-03-13T04:32:49;98288.09;;;-3.44;0.00
23318;BME280;11831;55.918;37.746;2023-03-13T04:35:17;98302.50;;;-3.64;0.00
23318;BME280;11831;55.918;37.746;2023-03-13T04:37:43;98306.72;;;-3.55;0.00
23318;BME280;11831;55.918;37.746;2023-03-13T04:40:11;98309.69;;;-3.74;0.00
23318;BME280;11831;55.918;37.746;2023-03-13T04:42:40;98322.75;;;-3.66;0.00
23318;BME280;11831;55.918;37.746;2023-03-13T04:45:10;98317.78;;;-3.28;0.00
23318;BME280;11831;55.918;37.746;2023-03-13T04:47:37;98332.53;;;-3.52;0.00
23318;BME280;11831;55.918;37.746;2023-03-13T04:50:04;98324.63;;;-3.19;0.00
23318;BME280;11831;55.918;37.746;2023-03-13T04:52:33;98337.75;;;-3.44;0.00
23318;BME280;11831;55.918;37.746;2023-03-13T04:55:00;98348.34;;;-3.37;0.00
23318;BME280;11831;55.918;37.746;2023-03-13T04:57:27;98346.56;;;-3.69;0.00
23318;BME280;11831;55.918;37.746;2023-03-13T04:59:53;98357.19;;;-3.46;0.00
23318;BME280;11831;55.918;37.746;2023-03-13T05:02:20;98354.03;;;-3.17;0.00
23318;BME280;11831;55.918;37.746;2023-03-13T05:04:46;98357.63;;;-3.18;0.00
23318;BME280;11831;55.918;37.746;2023-03-13T05:07:13;98359.56;;;-3.04;0.00
23318;BME280;11831;55.918;37.746;2023-03-13T05:09:40;98360.94;;;-3.32;0.00
23318;BME280;11831;55.918;37.746;2023-03-13T05:12:07;98369.75;;;-3.41;0.00
23318;BME280;11831;55.918;37.746;2023-03-13T05:14:38;98363.81;;;-3.11;0.00
23318;BME280;11831;55.918;37.746;2023-03-13T05:17:04;98375.94;;;-3.18;0.00
23318;BME280;11831;55.918;37.746;2023-03-13T05:19:31;98374.28;;;-3.03;0.00
23318;BME280;11831;55.918;37.746;2023-03-13T05:21:58;98385.37;;;-2.93;0.00
23318;BME280;11831;55.918;37.746;2023-03-13T05:24:24;98375.94;;;-2.63;0.00
23318;BME280;11831;55.918;37.746;2023-03-13T05:26:51;98386.88;;;-2.20;0.00
23318;BME280;11831;55.918;37.746;2023-03-13T05:29:18;98405.03;;;-3.05;0.00
23318;BME280;11831;55.918;37.746;2023-03-13T05:31:45;98393.56;;;-3.04;0.00
23318;BME280;11831;55.918;37.746;2023-03-13T05:34:11;98397.56;;;-2.77;0.00
23318;BME280;11831;55.918;37.746;2023-03-13T05:36:38;98403.16;;;-2.88;0.00
23318;BME280;11831;55.918;37.746;2023-03-13T05:39:05;98404.28;;;-2.74;0.00
23318;BME280;11831;55.918;37.746;2023-03-13T05:41:32;98411.03;;;-2.96;0.00
23318;BME280;11831;55.918;37.746;2023-03-13T05:43:59;98407.31;;;-3.02;0.00
23318;BME280;11831;55.918;37.746;2023-03-13T05:46:25;98409.81;;;-2.61;0.00
23318;BME280;11831;55.918;37.746;2023-03-13T05:48:52;98409.16;;;-2.24;0.00
23318;BME280;11831;55.918;37.746;2023-03-13T05:51:19;98418.44;;;-2.53;0.00
23318;BME280;11831;55.918;37.746;2023-03-13T05:53:46;98419.84;;;-2.34;0.00
23318;BME280;11831;55.918;37.746;2023-03-13T05:56:12;98430.31;;;-2.89;0.00
23318;BME280;11831;55.918;37.746;2023-03-13T05:58:39;98427.50;;;-2.71;0.00
23318;BME280;11831;55.918;37.746;2023-03-13T06:01:10;98441.91;;;-2.75;0.00
23318;BME280;11831;55.918;37.746;2023-03-13T06:03:37;98445.19;;;-2.90;0.00
23318;BME280;11831;55.918;37.746;2023-03-13T06:06:03;98434.34;;;-2.62;0.00
23318;BME280;11831;55.918;37.746;2023-03-13T06:08:30;98441.28;;;-2.38;0.00
23318;BME280;11831;55.918;37.746;2023-03-13T06:10:58;98431.56;;;-2.22;0.00
23318;BME280;11831;55.918;37.746;2023-03-13T06:13:26;98449.41;;;-2.25;0.00
23318;BME280;11831;55.918;37.746;2023-03-13T06:15:54;98440.53;;;-2.16;0.00
23318;BME280;11831;55.918;37.746;2023-03-13T06:18:23;98453.41;;;-2.37;0.00
23318;BME280;11831;55.918;37.746;2023-03-13T06:20:55;98444.72;;;-1.99;0.00
23318;BME280;11831;55.918;37.746;2023-03-13T06:23:22;98448.25;;;-2.23;0.00
23318;BME280;11831;55.918;37.746;2023-03-13T06:25:48;98456.13;;;-1.92;0.00
23318;BME280;11831;55.918;37.746;2023-03-13T06:28:15;98453.97;;;-1.88;0.00
23318;BME280;11831;55.918;37.746;2023-03-13T06:30:42;98451.75;;;-1.99;0.00
23318;BME280;11831;55.918;37.746;2023-03-13T06:33:08;98466.12;;;-1.95;0.00
23318;BME280;11831;55.918;37.746;2023-03-13T06:35:37;98476.22;;;-1.84;0.00
23318;BME280;11831;55.918;37.746;2023-03-13T06:38:04;98477.00;;;-2.06;0.00
23318;BME280;11831;55.918;37.746;2023-03-13T06:40:30;98483.19;;;-1.99;0.00
23318;BME280;11831;55.918;37.746;2023-03-13T06:42:57;98480.66;;;-1.84;0.00
23318;BME280;11831;55.918;37.746;2023-03-13T06:45:24;98493.88;;;-2.09;0.00
23318;BME280;11831;55.918;37.746;2023-03-13T06:47:50;98476.50;;;-1.71;0.00
23318;BME280;11831;55.918;37.746;2023-03-13T06:50:17;98483.44;;;-1.86;0.00
23318;BME280;11831;55.918;37.746;2023-03-13T06:52:45;98505.44;;;-1.95;0.00
23318;BME280;11831;55.918;37.746;2023-03-13T06:55:11;98490.47;;;-1.78;0.00
23318;BME280;11831;55.918;37.746;2023-03-13T06:57:39;98495.81;;;-1.41;0.00
23318;BME280;11831;55.918;37.746;2023-03-13T07:00:06;98505.38;;;-1.79;0.00
23318;BME280;11831;55.918;37.746;2023-03-13T07:02:33;98498.87;;;-1.37;0.00
23318;BME280;11831;55.918;37.746;2023-03-13T07:04:59;98498.72;;;-1.13;0.00
23318;BME280;11831;55.918;37.746;2023-03-13T07:07:31;98511.06;;;-0.61;0.00
23318;BME280;11831;55.918;37.746;2023-03-13T07:10:00;98520.72;;;-0.99;0.00
23318;BME280;11831;55.918;37.746;2023-03-13T07:12:29;98511.38;;;-1.16;0.00
23318;BME280;11831;55.918;37.746;2023-03-13T07:14:55;98512.72;;;-1.20;0.00
23318;BME280;11831;55.918;37.746;2023-03-13T07:17:21;98517.66;;;-1.03;0.00
23318;BME280;11831;55.918;37.746;2023-03-13T07:19:48;98539.41;;;-1.17;0.00
23318;BME280;11831;55.918;37.746;2023-03-13T07:22:14;98513.16;;;-0.27;0.00
23318;BME280;11831;55.918;37.746;2023-03-13T07:24:40;98526.16;;;-0.63;0.00
23318;BME280;11831;55.918;37.746;2023-03-13T07:27:07;98549.03;;;-0.72;0.00
23318;BME280;11831;55.918;37.746;2023-03-13T07:29:34;98556.38;;;-1.05;0.00
23318;BME280;11831;55.918;37.746;2023-03-13T07:32:00;98547.47;;;-0.58;0.00
23318;BME280;11831;55.918;37.746;2023-03-13T07:34:27;98559.78;;;-0.58;0.00
23318;BME280;11831;55.918;37.746;2023-03-13T07:36:53;98566.63;;;-0.95;0.00
23318;BME280;11831;55.918;37.746;2023-03-13T07:39:19;98572.47;;;-0.85;0.00
23318;BME280;11831;55.918;37.746;2023-03-13T07:41:46;98575.44;;;-1.11;0.00
23318;BME280;11831;55.918;37.746;2023-03-13T07:44:14;98564.22;;;-1.28;0.00
23318;BME280;11831;55.918;37.746;2023-03-13T07:46:41;98577.72;;;-1.08;0.00
23318;BME280;11831;55.918;37.746;2023-03-13T07:49:08;98570.19;;;-1.11;0.00
23318;BME280;11831;55.918;37.746;2023-03-13T07:51:34;98577.44;;;-0.52;0.00
23318;BME280;11831;55.918;37.746;2023-03-13T07:54:00;98599.69;;;-1.09;0.00
23318;BME280;11831;55.918;37.746;2023-03-13T07:56:27;98582.81;;;-0.69;0.00
23318;BME280;11831;55.918;37.746;2023-03-13T07:58:53;98600.44;;;-1.00;0.00
23318;BME280;11831;55.918;37.746;2023-03-13T08:01:22;98602.72;;;-1.20;0.00
23318;BME280;11831;55.918;37.746;2023-03-13T08:03:49;98586.59;;;-0.48;0.00
23318;BME280;11831;55.918;37.746;2023-03-13T08:06:21;98605.06;;;-0.79;0.00
23318;BME280;11831;55.918;37.746;2023-03-13T08:08:49;98597.63;;;-0.53;0.00
23318;BME280;11831;55.918;37.746;2023-03-13T08:11:18;98621.03;;;-0.66;0.00
23318;BME280;11831;55.918;37.746;2023-03-13T08:13:45;98603.78;;;-0.83;0.00
23318;BME280;11831;55.918;37.746;2023-03-13T08:16:17;98620.34;;;-0.60;0.00
23318;BME280;11831;55.918;37.746;2023-03-13T08:18:46;98604.63;;;-0.68;0.00
23318;BME280;11831;55.918;37.746;2023-03-13T08:21:18;98599.56;;;-0.32;0.00
23318;BME280;11831;55.918;37.746;2023-03-13T08:23:46;98600.03;;;-0.28;0.00
23318;BME280;11831;55.918;37.746;2023-03-13T08:26:15;98615.31;;;-0.70;0.00
23318;BME280;11831;55.918;37.746;2023-03-13T08:28:43;98608.69;;;-0.57;0.00
23318;BME280;11831;55.918;37.746;2023-03-13T08:31:17;98611.22;;;0.03;0.00
23318;BME280;11831;55.918;37.746;2023-03-13T08:33:45;98609.78;;;-0.52;0.00
23318;BME280;11831;55.918;37.746;2023-03-13T08:36:19;98623.88;;;-0.15;0.00
23318;BME280;11831;55.918;37.746;2023-03-13T08:38:48;98616.66;;;0.02;0.00
23318;BME280;11831;55.918;37.746;2023-03-13T08:41:20;98615.50;;;-0.34;0.00
23318;BME280;11831;55.918;37.746;2023-03-13T08:43:47;98626.41;;;-0.22;0.00
23318;BME280;11831;55.918;37.746;2023-03-13T08:46:14;98620.25;;;-0.14;0.00
23318;BME280;11831;55.918;37.746;2023-03-13T08:48:40;98627.59;;;-0.24;0.00
23318;BME280;11831;55.918;37.746;2023-03-13T08:51:12;98616.66;;;0.46;0.00
23318;BME280;11831;55.918;37.746;2023-03-13T08:53:40;98608.13;;;0.95;0.00
23318;BME280;11831;55.918;37.746;2023-03-13T08:56:12;98626.19;;;0.17;0.00
23318;BME280;11831;55.918;37.746;2023-03-13T08:58:38;98629.91;;;0.38;0.00
23318;BME280;11831;55.918;37.746;2023-03-13T09:01:08;98651.78;;;-0.14;0.00
23318;BME280;11831;55.918;37.746;2023-03-13T09:03:34;98649.12;;;0.09;0.00
23318;BME280;11831;55.918;37.746;2023-03-13T09:06:02;98654.84;;;0.42;0.00
23318;BME280;11831;55.918;37.746;2023-03-13T09:08:29;98646.75;;;0.14;0.00
23318;BME280;11831;55.918;37.746;2023-03-13T09:10:58;98663.03;;;-0.06;0.00
23318;BME280;11831;55.918;37.746;2023-03-13T09:13:26;98661.03;;;-0.18;0.00
23318;BME280;11831;55.918;37.746;2023-03-13T09:15:54;98657.75;;;-0.20;0.00
23318;BME280;11831;55.918;37.746;2023-03-13T09:18:21;98669.00;;;-0.12;0.00
23318;BME280;11831;55.918;37.746;2023-03-13T09:20:47;98706.50;;;-0.64;0.00
23318;BME280;11831;55.918;37.746;2023-03-13T09:23:13;98666.97;;;0.43;0.00
23318;BME280;11831;55.918;37.746;2023-03-13T09:25:40;98681.28;;;0.25;0.00
23318;BME280;11831;55.918;37.746;2023-03-13T09:28:06;98667.34;;;0.10;0.00
23318;BME280;11831;55.918;37.746;2023-03-13T09:30:32;98663.62;;;0.19;0.00
23318;BME280;11831;55.918;37.746;2023-03-13T09:32:58;98674.44;;;0.39;0.00
23318;BME280;11831;55.918;37.746;2023-03-13T09:35:25;98676.13;;;0.17;0.00
23318;BME280;11831;55.918;37.746;2023-03-13T09:37:51;98685.56;;;0.26;0.00
23318;BME280;11831;55.918;37.746;2023-03-13T09:40:21;98692.34;;;0.21;0.00
23318;BME280;11831;55.918;37.746;2023-03-13T09:42:56;98686.94;;;0.37;0.00
23318;BME280;11831;55.918;37.746;2023-03-13T09:45:30;98703.91;;;0.35;0.00
23318;BME280;11831;55.918;37.746;2023-03-13T09:48:04;98693.84;;;0.38;0.00
23318;BME280;11831;55.918;37.746;2023-03-13T09:50:39;98700.34;;;0.13;0.00
23318;BME280;11831;55.918;37.746;2023-03-13T09:53:19;98698.16;;;-0.21;0.00
23318;BME280;11831;55.918;37.746;2023-03-13T09:55:50;98713.91;;;0.02;0.00
23318;BME280;11831;55.918;37.746;2023-03-13T09:58:26;98711.13;;;-0.43;0.00
23318;BME280;11831;55.918;37.746;2023-03-13T10:00:56;98717.69;;;-0.01;0.00
23318;BME280;11831;55.918;37.746;2023-03-13T10:03:35;98719.09;;;0.10;0.00
23318;BME280;11831;55.918;37.746;2023-03-13T10:06:18;98712.50;;;-0.09;0.00
23318;BME280;11831;55.918;37.746;2023-03-13T10:08:45;98709.50;;;-0.21;0.00
23318;BME280;11831;55.918;37.746;2023-03-13T10:11:29;98724.66;;;-0.08;0.00
23318;BME280;11831;55.918;37.746;2023-03-13T10:14:09;98758.87;;;-0.39;0.00
23318;BME280;11831;55.918;37.746;2023-03-13T10:16:43;98732.59;;;-0.62;0.00
23318;BME280;11831;55.918;37.746;2023-03-13T10:19:25;98742.84;;;-0.75;0.00
23318;BME280;11831;55.918;37.746;2023-03-13T10:21:54;98728.16;;;-0.16;0.00
23318;BME280;11831;55.918;37.746;2023-03-13T10:24:40;98747.91;;;-0.43;0.00
23318;BME280;11831;55.918;37.746;2023-03-13T10:27:09;98756.94;;;-0.45;0.00
23318;BME280;11831;55.918;37.746;2023-03-13T10:29:36;98740.47;;;0.07;0.00
23318;BME280;11831;55.918;37.746;2023-03-13T10:32:05;98736.28;;;0.35;0.00
23318;BME280;11831;55.918;37.746;2023-03-13T10:35:00;98773.81;;;-0.40;0.00
23318;BME280;11831;55.918;37.746;2023-03-13T10:37:41;98761.25;;;-0.07;0.00
23318;BME280;11831;55.918;37.746;2023-03-13T10:40:21;98754.44;;;0.74;0.00
23318;BME280;11831;55.918;37.746;2023-03-13T10:42:50;98749.00;;;-0.14;0.00
23318;BME280;11831;55.918;37.746;2023-03-13T10:45:19;98784.44;;;0.13;0.00
23318;BME280;11831;55.918;37.746;2023-03-13T10:47:54;98764.84;;;0.01;0.00
23318;BME280;11831;55.918;37.746;2023-03-13T10:50:24;98827.50;;;-0.73;0.00
23318;BME280;11831;55.918;37.746;2023-03-13T10:52:51;98783.28;;;-0.08;0.00
23318;BME280;11831;55.918;37.746;2023-03-13T10:55:22;98811.50;;;-0.55;0.00
23318;BME280;11831;55.918;37.746;2023-03-13T10:57:58;98785.03;;;-0.46;0.00
23318;BME280;11831;55.918;37.746;2023-03-13T11:00:36;98815.28;;;-0.97;0.00
23318;BME280;11831;55.918;37.746;2023-03-13T11:03:17;98793.06;;;-0.47;0.00
23318;BME280;11831;55.918;37.746;2023-03-13T11:05:58;98794.31;;;0.11;0.00
23318;BME280;11831;55.918;37.746;2023-03-13T11:08:35;98835.84;;;-0.30;0.00
23318;BME280;11831;55.918;37.746;2023-03-13T11:11:05;98813.97;;;-0.54;0.00
23318;BME280;11831;55.918;37.746;2023-03-13T11:13:42;98815.25;;;-0.50;0.00
23318;BME280;11831;55.918;37.746;2023-03-13T11:19:07;98829.56;;;0.02;0.00
23318;BME280;11831;55.918;37.746;2023-03-13T11:21:54;98811.56;;;0.13;0.00
23318;BME280;11831;55.918;37.746;2023-03-13T11:24:45;98851.25;;;-0.27;0.00
23318;BME280;11831;55.918;37.746;2023-03-13T11:38:17;98874.06;;;0.03;0.00
23318;BME280;11831;55.918;37.746;2023-03-13T11:46:47;98866.31;;;0.10;0.00
23318;BME280;11831;55.918;37.746;2023-03-13T11:57:11;98889.09;;;0.17;0.00
23318;BME280;11831;55.918;37.746;2023-03-13T11:59:47;98869.94;;;0.09;0.00
23318;BME280;11831;55.918;37.746;2023-03-13T12:02:27;98868.62;;;0.27;0.00
23318;BME280;11831;55.918;37.746;2023-03-13T12:05:02;98867.50;;;0.82;0.00
23318;BME280;11831;55.918;37.746;2023-03-13T12:07:36;98870.56;;;0.34;0.00
23318;BME280;11831;55.918;37.746;2023-03-13T12:10:46;98866.25;;;0.18;0.00
23318;BME280;11831;55.918;37.746;2023-03-13T12:13:11;98870.25;;;-0.17;0.00
23318;BME280;11831;55.918;37.746;2023-03-13T12:16:05;98875.38;;;-0.01;0.00
23318;BME280;11831;55.918;37.746;2023-03-13T12:18:35;98886.06;;;-0.03;0.00
23318;BME280;11831;55.918;37.746;2023-03-13T12:23:51;98895.63;;;0.67;0.00
23318;BME280;11831;55.918;37.746;2023-03-13T12:26:25;98899.84;;;0.08;0.00
23318;BME280;11831;55.918;37.746;2023-03-13T12:29:13;98878.38;;;2.40;0.00
23318;BME280;11831;55.918;37.746;2023-03-13T12:32:06;98898.75;;;2.46;0.00
23318;BME280;11831;55.918;37.746;2023-03-13T12:37:17;98884.72;;;2.45;0.00
23318;BME280;11831;55.918;37.746;2023-03-13T12:39:51;98912.81;;;1.96;0.00
23318;BME280;11831;55.918;37.746;2023-03-13T12:44:49;98913.94;;;0.38;0.00
23318;BME280;11831;55.918;37.746;2023-03-13T12:50:12;98926.00;;;-0.30;0.00
23318;BME280;11831;55.918;37.746;2023-03-13T12:58:28;98895.25;;;0.33;0.00
23318;BME280;11831;55.918;37.746;2023-03-13T13:01:01;98920.19;;;0.97;0.00
23318;BME280;11831;55.918;37.746;2023-03-13T13:08:47;98948.69;;;-0.06;0.00
23318;BME280;11831;55.918;37.746;2023-03-13T13:11:39;98934.13;;;1.65;0.00
23318;BME280;11831;55.918;37.746;2023-03-13T13:32:47;98954.41;;;4.45;0.00
23318;BME280;11831;55.918;37.746;2023-03-13T13:35:18;98952.72;;;3.14;0.00
23318;BME280;11831;55.918;37.746;2023-03-13T13:37:45;98957.06;;;2.15;0.00
23318;BME280;11831;55.918;37.746;2023-03-13T13:40:25;98945.91;;;1.98;0.00
23318;BME280;11831;55.918;37.746;2023-03-13T13:42:53;98966.66;;;1.28;0.00
23318;BME280;11831;55.918;37.746;2023-03-13T13:46:02;98942.03;;;1.35;0.00
23318;BME280;11831;55.918;37.746;2023-03-13T13:48:36;98946.75;;;1.40;0.00
23318;BME280;11831;55.918;37.746;2023-03-13T13:53:54;98959.16;;;1.16;0.00
23318;BME280;11831;55.918;37.746;2023-03-13T13:58:57;98961.59;;;0.66;0.00
23318;BME280;11831;55.918;37.746;2023-03-13T14:01:24;98980.84;;;1.04;0.00
23318;BME280;11831;55.918;37.746;2023-03-13T14:03:53;98991.34;;;0.66;0.00
23318;BME280;11831;55.918;37.746;2023-03-13T14:06:26;98970.44;;;0.87;0.00
23318;BME280;11831;55.918;37.746;2023-03-13T14:09:13;98994.34;;;0.55;0.00
23318;BME280;11831;55.918;37.746;2023-03-13T14:11:42;98990.31;;;0.90;0.00
23318;BME280;11831;55.918;37.746;2023-03-13T14:14:19;98971.56;;;0.93;0.00
23318;BME280;11831;55.918;37.746;2023-03-13T14:16:49;98985.00;;;0.98;0.00
23318;BME280;11831;55.918;37.746;2023-03-13T14:21:50;98978.22;;;3.00;0.00
23318;BME280;11831;55.918;37.746;2023-03-13T14:24:17;98978.91;;;1.35;0.00
23318;BME280;11831;55.918;37.746;2023-03-13T14:26:44;98993.69;;;0.30;0.00
23318;BME280;11831;55.918;37.746;2023-03-13T14:29:18;98990.56;;;1.03;0.00
23318;BME280;11831;55.918;37.746;2023-03-13T14:31:53;98990.72;;;0.56;0.00
23318;BME280;11831;55.918;37.746;2023-03-13T14:34:21;98989.22;;;0.39;0.00
23318;BME280;11831;55.918;37.746;2023-03-13T14:36:52;98997.88;;;0.47;0.00
23318;BME280;11831;55.918;37.746;2023-03-13T14:39:21;98992.19;;;2.01;0.00